createdAt,value
2018-11-27T00:00:42.401Z,52.70
2018-11-27T00:03:09.820Z,49.90
2018-11-27T00:05:38.735Z,49.90
2018-11-27T00:08:06.583Z,53.23
2018-11-27T00:10:34.801Z,52.77
2018-11-27T00:13:02.438Z,55.37
2018-11-27T00:15:29.917Z,55.37
2018-11-27T00:17:57.368Z,55.53
2018-11-27T00:20:24.823Z,67.27
2018-11-27T00:22:52.613Z,53.47
2018-11-27T00:25:20.078Z,51.07
2018-11-27T00:27:47.575Z,51.27
2018-11-27T00:30:16.520Z,59.23
2018-11-27T00:32:44.005Z,53.07
2018-11-27T00:35:12.135Z,47.07
2018-11-27T00:37:39.562Z,58.67
2018-11-27T00:40:08.806Z,54.03
2018-11-27T00:42:36.374Z,55.40
2018-11-27T00:45:04.442Z,54.53
2018-11-27T00:47:32.416Z,46.07
2018-11-27T00:49:59.970Z,47.70
2018-11-27T00:52:27.439Z,45.07
2018-11-27T00:54:58.710Z,44.03
2018-11-27T00:57:22.537Z,46.97
2018-11-27T00:59:49.954Z,45.07
2018-11-27T01:02:17.577Z,52.97
2018-11-27T01:04:50.576Z,47.83
2018-11-27T01:07:18.144Z,54.83
2018-11-27T01:09:45.827Z,50.50
2018-11-27T01:12:13.359Z,52.07
2018-11-27T01:14:40.857Z,40.40
2018-11-27T01:17:13.646Z,43.97
2018-11-27T01:19:41.104Z,40.20
2018-11-27T01:22:08.608Z,44.23
2018-11-27T01:24:36.124Z,43.37
2018-11-27T01:27:03.802Z,44.83
2018-11-27T01:29:31.388Z,53.13
2018-11-27T01:31:59.246Z,47.87
2018-11-27T01:34:32.406Z,60.17
2018-11-27T01:37:00.143Z,56.53
2018-11-27T01:39:27.572Z,49.53
2018-11-27T01:41:55.058Z,44.63
2018-11-27T01:44:22.699Z,44.40
2018-11-27T01:46:50.136Z,44.67
2018-11-27T01:49:17.844Z,51.70
2018-11-27T01:51:51.390Z,45.30
2018-11-27T01:54:18.848Z,44.17
2018-11-27T01:56:46.312Z,50.83
2018-11-27T01:59:13.855Z,52.10
2018-11-27T02:01:41.288Z,46.70
2018-11-27T02:04:08.715Z,53.03
2018-11-27T02:06:36.280Z,49.10
2018-11-27T02:09:04.592Z,52.83
2018-11-27T02:11:32.207Z,54.63
2018-11-27T02:13:59.720Z,49.47
2018-11-27T02:16:27.197Z,54.67
2018-11-27T02:19:00.399Z,56.23
2018-11-27T02:21:33.426Z,59.20
2018-11-27T02:24:01.261Z,55.97
2018-11-27T02:26:28.766Z,55.33
2018-11-27T02:29:02.121Z,47.70
2018-11-27T02:31:29.680Z,45.67
2018-11-27T02:33:57.100Z,45.57
2018-11-27T02:36:30.144Z,52.00
2018-11-27T02:38:57.588Z,53.67
2018-11-27T02:41:25.060Z,51.03
2018-11-27T02:43:52.677Z,48.30
2018-11-27T02:46:20.113Z,45.60
2018-11-27T02:48:48.210Z,51.83
2018-11-27T02:51:15.890Z,58.57
2018-11-27T02:53:43.550Z,48.40
2018-11-27T02:56:16.721Z,50.07
2018-11-27T02:58:44.150Z,48.80
2018-11-27T03:01:11.635Z,55.07
2018-11-27T03:03:39.117Z,50.80
2018-11-27T03:06:06.566Z,50.50
2018-11-27T03:08:34.193Z,46.37
2018-11-27T03:11:01.681Z,54.97
2018-11-27T03:13:29.220Z,48.80
2018-11-27T03:15:56.717Z,48.03
2018-11-27T03:18:24.374Z,51.13
2018-11-27T03:20:51.794Z,49.13
2018-11-27T03:23:24.838Z,43.60
2018-11-27T03:25:52.354Z,46.23
2018-11-27T03:28:19.840Z,45.80
2018-11-27T03:30:47.454Z,47.57
2018-11-27T03:33:15.072Z,47.80
2018-11-27T03:35:42.607Z,48.73
2018-11-27T03:38:10.163Z,52.70
2018-11-27T03:40:37.770Z,51.33
2018-11-27T03:43:05.202Z,49.73
2018-11-27T03:45:32.678Z,51.57
2018-11-27T03:48:00.109Z,51.33
2018-11-27T03:50:28.368Z,51.90
2018-11-27T03:52:55.893Z,49.73
2018-11-27T03:55:23.485Z,51.83
2018-11-27T03:57:50.923Z,41.07
2018-11-27T04:00:29.525Z,43.93
2018-11-27T04:03:04.331Z,47.63
2018-11-27T04:05:31.990Z,42.23
2018-11-27T04:07:59.429Z,46.03
2018-11-27T04:10:26.932Z,42.73
2018-11-27T04:12:54.389Z,44.43
2018-11-27T04:15:21.822Z,48.20
2018-11-27T04:17:49.258Z,54.50
2018-11-27T04:20:16.805Z,49.10
2018-11-27T04:22:44.328Z,53.43
2018-11-27T04:25:12.645Z,47.73
2018-11-27T04:27:45.848Z,49.07
2018-11-27T04:30:15.088Z,47.53
2018-11-27T04:32:42.792Z,46.63
2018-11-27T04:35:12.048Z,48.30
2018-11-27T04:37:39.521Z,44.60
2018-11-27T04:40:07.879Z,48.10
2018-11-27T04:42:35.384Z,56.53
2018-11-27T04:45:03.071Z,49.80
2018-11-27T04:47:36.162Z,54.40
2018-11-27T04:50:03.927Z,50.10
2018-11-27T04:52:31.366Z,63.93
2018-11-27T04:54:58.827Z,39.53
2018-11-27T04:57:31.842Z,41.90
2018-11-27T04:59:59.359Z,40.97
2018-11-27T05:02:26.837Z,43.40
2018-11-27T05:04:54.298Z,48.23
2018-11-27T05:07:21.941Z,42.90
2018-11-27T05:09:50.033Z,42.67
2018-11-27T05:12:17.511Z,48.70
2018-11-27T05:14:50.549Z,52.83
2018-11-27T05:17:18.064Z,50.70
2018-11-27T05:19:45.523Z,42.67
2018-11-27T05:22:13.035Z,40.50
2018-11-27T05:24:40.451Z,37.67
2018-11-27T05:27:14.087Z,46.07
2018-11-27T05:29:41.521Z,46.43
2018-11-27T05:32:09.221Z,43.30
2018-11-27T05:34:36.720Z,38.93
2018-11-27T05:37:04.337Z,41.63
2018-11-27T05:39:32.197Z,42.17
2018-11-27T05:41:59.665Z,45.20
2018-11-27T05:44:27.227Z,42.40
2018-11-27T05:46:54.626Z,44.63
2018-11-27T05:49:22.105Z,43.40
2018-11-27T05:51:55.069Z,45.87
2018-11-27T05:54:22.560Z,47.57
2018-11-27T05:56:49.989Z,45.03
2018-11-27T05:59:18.095Z,47.30
2018-11-27T06:01:46.609Z,39.30
2018-11-27T06:04:14.899Z,40.37
2018-11-27T06:09:16.517Z,44.70
2018-11-27T06:11:44.189Z,40.90
2018-11-27T06:14:11.599Z,32.53
2018-11-27T06:16:39.089Z,37.10
2018-11-27T06:19:06.601Z,37.40
2018-11-27T06:21:34.363Z,38.23
2018-11-27T06:24:01.907Z,36.10
2018-11-27T06:26:34.853Z,42.60
2018-11-27T06:29:02.427Z,41.00
2018-11-27T06:31:29.835Z,42.10
2018-11-27T06:34:02.711Z,45.70
2018-11-27T06:36:30.135Z,43.10
2018-11-27T06:38:57.699Z,44.00
2018-11-27T06:41:25.239Z,40.83
2018-11-27T06:43:52.761Z,36.70
2018-11-27T06:46:20.217Z,45.23
2018-11-27T06:48:47.983Z,42.53
2018-11-27T06:51:20.805Z,45.80
2018-11-27T06:53:48.367Z,44.63
2018-11-27T06:56:21.419Z,44.10
2018-11-27T06:58:49.143Z,37.80
2018-11-27T07:01:16.605Z,38.60
2018-11-27T07:16:48.935Z,42.53
2018-11-27T07:19:27.401Z,40.33
2018-11-27T07:21:54.999Z,41.60
2018-11-27T07:24:22.541Z,37.77
2018-11-27T07:26:52.878Z,38.67
2018-11-27T07:29:17.641Z,38.90
2018-11-27T07:31:45.515Z,40.10
2018-11-27T07:34:18.508Z,38.87
2018-11-27T07:36:46.123Z,44.33
2018-11-27T07:39:13.554Z,50.20
2018-11-27T07:41:41.053Z,44.33
2018-11-27T07:44:08.629Z,48.90
2018-11-27T07:46:36.126Z,46.77
2018-11-27T07:49:03.694Z,49.03
2018-11-27T07:51:31.161Z,49.20
2018-11-27T07:53:58.596Z,44.60
2018-11-27T07:56:26.091Z,41.07
2018-11-27T07:58:54.071Z,39.57
2018-11-27T08:01:21.585Z,39.63
2018-11-27T08:03:49.139Z,36.97
2018-11-27T08:06:16.682Z,41.27
2018-11-27T08:08:44.147Z,42.03
2018-11-27T08:11:11.859Z,40.10
2018-11-27T08:13:39.298Z,39.27
2018-11-27T08:16:06.862Z,35.83
2018-11-27T08:18:34.351Z,39.80
2018-11-27T08:21:02.117Z,38.20
2018-11-27T08:23:29.886Z,36.83
2018-11-27T08:25:57.375Z,42.33
2018-11-27T08:28:24.810Z,38.77
2018-11-27T08:30:57.659Z,56.77
2018-11-27T08:33:25.361Z,51.10
2018-11-27T08:35:53.004Z,32.77
2018-11-27T08:38:20.683Z,32.80
2018-11-27T08:40:48.329Z,31.00
2018-11-27T08:43:15.760Z,23.60
2018-11-27T08:45:43.526Z,24.97
2018-11-27T08:48:10.954Z,29.27
2018-11-27T08:50:38.395Z,35.17
2018-11-27T08:53:06.566Z,35.40
2018-11-27T08:55:35.138Z,30.80
2018-11-27T08:58:02.875Z,26.90
2018-11-27T09:00:30.369Z,32.80
2018-11-27T09:02:57.936Z,28.03
2018-11-27T09:05:25.382Z,36.53
2018-11-27T09:07:52.864Z,33.20
2018-11-27T09:10:21.407Z,38.93
2018-11-27T09:12:48.847Z,37.60
2018-11-27T09:15:17.085Z,34.57
2018-11-27T09:17:52.802Z,38.07
2018-11-27T09:20:20.963Z,35.43
2018-11-27T09:22:47.922Z,33.77
2018-11-27T09:25:15.582Z,33.77
2018-11-27T09:27:43.226Z,32.73
2018-11-27T09:30:13.305Z,34.17
2018-11-27T09:32:46.506Z,30.53
2018-11-27T09:35:14.290Z,32.17
2018-11-27T09:37:42.112Z,33.63
2018-11-27T09:40:13.028Z,32.33
2018-11-27T09:42:40.505Z,30.60
2018-11-27T09:45:09.826Z,30.03
2018-11-27T09:47:37.640Z,30.03
2018-11-27T09:50:05.899Z,35.17
2018-11-27T09:52:33.455Z,35.53
2018-11-27T09:55:00.939Z,34.70
2018-11-27T09:57:28.464Z,31.73
2018-11-27T09:59:56.002Z,30.70
2018-11-27T10:02:23.484Z,25.17
2018-11-27T10:04:51.135Z,31.17
2018-11-27T10:07:18.683Z,30.03
2018-11-27T10:09:46.411Z,31.27
2018-11-27T10:12:19.572Z,27.50
2018-11-27T10:14:47.050Z,25.13
2018-11-27T10:17:14.527Z,28.67
2018-11-27T10:19:42.183Z,29.80
2018-11-27T10:22:09.680Z,27.13
2018-11-27T10:24:49.142Z,23.13
2018-11-27T10:27:16.638Z,23.23
2018-11-27T10:29:44.883Z,25.93
2018-11-27T10:32:12.312Z,24.03
2018-11-27T10:34:43.507Z,25.47
2018-11-27T10:37:11.554Z,24.87
2018-11-27T10:39:39.038Z,19.90
2018-11-27T10:42:07.222Z,27.47
2018-11-27T10:44:35.023Z,23.60
2018-11-27T10:47:02.562Z,24.87
2018-11-27T10:49:30.067Z,25.40
2018-11-27T10:51:57.513Z,24.70
2018-11-27T10:54:25.039Z,28.33
2018-11-27T10:56:52.550Z,28.23
2018-11-27T10:59:20.312Z,30.27
2018-11-27T11:01:52.835Z,24.47
2018-11-27T11:04:20.635Z,25.60
2018-11-27T11:06:48.114Z,25.10
2018-11-27T11:09:15.663Z,28.13
2018-11-27T11:11:43.378Z,30.63
2018-11-27T11:14:11.159Z,28.17
2018-11-27T11:16:38.690Z,26.40
2018-11-27T11:19:06.390Z,28.23
2018-11-27T11:21:33.863Z,29.37
2018-11-27T11:24:01.376Z,29.67
2018-11-27T11:26:28.987Z,20.47
2018-11-27T11:28:56.416Z,25.37
2018-11-27T11:31:23.890Z,19.93
2018-11-27T11:33:51.328Z,24.00
2018-11-27T11:36:19.730Z,22.90
2018-11-27T11:38:47.652Z,22.83
2018-11-27T11:41:15.114Z,23.27
2018-11-27T11:43:42.975Z,23.43
2018-11-27T11:46:10.464Z,22.17
2018-11-27T11:48:38.051Z,17.77
2018-11-27T11:51:06.075Z,19.60
2018-11-27T11:53:33.710Z,13.90
2018-11-27T11:56:01.144Z,14.73
2018-11-27T11:58:28.574Z,21.50
2018-11-27T12:00:56.825Z,18.13
2018-11-27T12:03:24.416Z,20.30
2018-11-27T12:05:51.874Z,18.33
2018-11-27T12:08:19.354Z,20.00
2018-11-27T12:10:47.096Z,18.13
2018-11-27T12:13:19.879Z,17.83
2018-11-27T12:15:47.810Z,17.87
2018-11-27T12:18:15.392Z,21.53
2018-11-27T12:20:43.022Z,21.23
2018-11-27T12:23:11.193Z,21.10
2018-11-27T12:25:39.150Z,25.43
2018-11-27T12:28:07.468Z,22.27
2018-11-27T12:30:34.953Z,26.10
2018-11-27T12:33:02.384Z,20.83
2018-11-27T12:35:29.938Z,27.03
2018-11-27T12:37:57.477Z,21.13
2018-11-27T12:40:26.076Z,18.83
2018-11-27T12:42:54.387Z,22.07
2018-11-27T12:45:23.291Z,22.13
2018-11-27T12:47:51.523Z,16.60
2018-11-27T12:50:20.867Z,18.27
2018-11-27T12:52:48.501Z,15.93
2018-11-27T12:55:16.586Z,23.00
2018-11-27T12:57:44.143Z,16.00
2018-11-27T13:00:13.279Z,17.43
2018-11-27T13:02:40.786Z,16.43
2018-11-27T13:05:09.150Z,15.73
2018-11-27T13:07:37.067Z,17.60
2018-11-27T13:10:05.342Z,21.23
2018-11-27T13:12:32.845Z,18.30
2018-11-27T13:15:00.296Z,17.33
2018-11-27T13:17:27.989Z,16.90
2018-11-27T13:19:55.505Z,18.63
2018-11-27T13:22:22.927Z,13.47
2018-11-27T13:24:50.485Z,13.37
2018-11-27T13:27:18.060Z,14.80
2018-11-27T13:29:45.496Z,17.73
2018-11-27T13:32:13.400Z,13.30
2018-11-27T13:34:46.418Z,15.00
2018-11-27T13:37:08.601Z,14.50
2018-11-27T13:39:36.583Z,18.23
2018-11-27T13:42:04.069Z,16.37
2018-11-27T13:44:31.500Z,17.37
2018-11-27T13:46:59.034Z,17.93
2018-11-27T13:49:31.987Z,17.13
2018-11-27T13:51:59.518Z,18.67
2018-11-27T13:54:26.940Z,18.20
2018-11-27T13:56:54.424Z,17.53
2018-11-27T13:59:21.964Z,16.53
2018-11-27T14:01:49.532Z,11.93
2018-11-27T14:04:17.087Z,11.30
2018-11-27T14:06:44.676Z,13.73
2018-11-27T14:09:12.235Z,14.17
2018-11-27T14:11:39.888Z,11.90
2018-11-27T14:14:07.802Z,10.13
2018-11-27T14:16:35.693Z,13.50
2018-11-27T14:19:03.300Z,15.90
2018-11-27T14:21:30.729Z,13.57
2018-11-27T14:23:58.583Z,15.27
2018-11-27T14:26:31.761Z,17.33
2018-11-27T14:28:59.621Z,18.20
2018-11-27T14:31:27.179Z,23.07
2018-11-27T14:33:54.737Z,22.93
2018-11-27T14:36:22.488Z,21.40
2018-11-27T14:38:50.137Z,22.67
2018-11-27T14:41:17.800Z,18.63
2018-11-27T14:43:45.258Z,22.90
2018-11-27T14:46:12.693Z,33.63
2018-11-27T14:48:40.345Z,26.27
2018-11-27T14:51:07.793Z,29.87
2018-11-27T14:53:35.240Z,34.60
2018-11-27T14:56:03.255Z,35.57
2018-11-27T14:58:30.773Z,28.90
2018-11-27T15:00:58.237Z,29.83
2018-11-27T15:03:25.710Z,33.33
2018-11-27T15:05:53.315Z,38.53
2018-11-27T15:08:26.561Z,43.07
2018-11-27T15:10:54.185Z,40.20
2018-11-27T15:13:21.683Z,35.97
2018-11-27T15:15:49.185Z,32.90
2018-11-27T15:18:16.941Z,43.83
2018-11-27T15:20:44.485Z,32.00
2018-11-27T15:23:17.640Z,43.57
2018-11-27T15:25:45.252Z,39.00
2018-11-27T15:28:12.860Z,40.53
2018-11-27T15:30:40.502Z,34.30
2018-11-27T15:33:08.062Z,47.17
2018-11-27T15:35:36.034Z,50.60
2018-11-27T15:38:04.079Z,45.57
2018-11-27T15:40:31.688Z,42.73
2018-11-27T15:42:59.129Z,52.30
2018-11-27T15:45:27.211Z,54.63
2018-11-27T15:47:54.693Z,55.20
2018-11-27T15:50:22.139Z,59.80
2018-11-27T15:52:49.653Z,56.80
2018-11-27T15:55:33.684Z,54.93
2018-11-27T15:58:03.325Z,49.67
2018-11-27T16:00:31.014Z,58.10
2018-11-27T16:02:58.444Z,52.33
2018-11-27T16:05:25.935Z,54.97
2018-11-27T16:07:53.513Z,56.87
2018-11-27T16:10:21.039Z,60.03
2018-11-27T16:12:48.851Z,57.00
2018-11-27T16:15:17.493Z,61.77
2018-11-27T16:17:44.945Z,60.97
2018-11-27T16:20:21.657Z,87.83
2018-11-27T16:22:49.686Z,86.27
2018-11-27T16:25:17.725Z,72.23
2018-11-27T16:27:45.522Z,75.43
2018-11-27T16:30:14.622Z,75.87
2018-11-27T16:32:42.098Z,70.93
2018-11-27T16:35:10.518Z,66.83
2018-11-27T16:37:38.717Z,61.17
2018-11-27T16:40:10.081Z,52.57
2018-11-27T16:42:37.686Z,44.83
2018-11-27T16:45:06.427Z,46.03
2018-11-27T16:47:33.884Z,59.00
2018-11-27T16:50:01.554Z,52.87
2018-11-27T16:52:29.208Z,54.87
2018-11-27T16:54:56.787Z,55.77
2018-11-27T16:57:25.145Z,72.77
2018-11-27T16:59:52.780Z,65.23
2018-11-27T17:02:21.005Z,75.70
2018-11-27T17:04:49.333Z,69.37
2018-11-27T17:07:16.986Z,86.60
2018-11-27T17:09:44.668Z,83.23
2018-11-27T17:12:13.595Z,92.23
2018-11-27T17:14:40.004Z,93.00
2018-11-27T17:17:07.678Z,83.93
2018-11-27T17:19:35.362Z,86.97
2018-11-27T17:22:03.109Z,80.40
2018-11-27T17:24:30.558Z,90.00
2018-11-27T17:26:58.048Z,86.00
2018-11-27T17:29:25.496Z,84.43
2018-11-27T17:31:53.279Z,90.80
2018-11-27T17:34:20.820Z,99.93
2018-11-27T17:36:48.264Z,92.47
2018-11-27T17:39:16.090Z,101.80
2018-11-27T17:41:44.125Z,94.87
2018-11-27T17:44:15.237Z,91.50
2018-11-27T17:46:44.528Z,88.13
2018-11-27T17:49:12.202Z,81.33
2018-11-27T17:51:39.696Z,99.23
2018-11-27T17:54:07.410Z,99.20
2018-11-27T17:56:34.859Z,88.83
2018-11-27T17:59:02.621Z,94.07
2018-11-27T18:01:35.508Z,105.37
2018-11-27T18:04:03.081Z,85.73
2018-11-27T18:06:30.533Z,83.70
2018-11-27T18:08:58.136Z,83.30
2018-11-27T18:11:25.564Z,93.20
2018-11-27T18:13:53.004Z,92.30
2018-11-27T18:16:20.458Z,99.40
2018-11-27T18:18:48.158Z,94.10
2018-11-27T18:21:15.896Z,97.77
2018-11-27T18:23:43.542Z,82.30
2018-11-27T18:26:11.010Z,101.33
2018-11-27T18:28:38.460Z,103.17
2018-11-27T18:31:06.496Z,96.90
2018-11-27T18:33:34.049Z,103.23
2018-11-27T18:36:01.481Z,104.63
2018-11-27T18:38:28.981Z,92.33
2018-11-27T18:40:56.734Z,107.50
2018-11-27T18:43:24.400Z,108.20
2018-11-27T18:45:52.102Z,106.33
2018-11-27T18:48:20.079Z,110.10
2018-11-27T18:50:47.747Z,102.40
2018-11-27T18:53:15.587Z,105.30
2018-11-27T18:55:43.331Z,133.97
2018-11-27T18:58:10.815Z,125.77
2018-11-27T19:00:38.424Z,229.23
2018-11-27T19:03:05.874Z,234.20
2018-11-27T19:05:33.347Z,210.37
2018-11-27T19:08:01.065Z,205.40
2018-11-27T19:10:29.413Z,137.00
2018-11-27T19:12:56.994Z,117.93
2018-11-27T19:15:25.549Z,112.90
2018-11-27T19:17:54.844Z,111.63
2018-11-27T19:20:22.749Z,103.77
2018-11-27T19:22:50.505Z,92.27
2018-11-27T19:25:18.267Z,102.33
2018-11-27T19:27:45.960Z,95.90
2018-11-27T19:30:16.148Z,114.80
2018-11-27T19:32:42.698Z,118.63
2018-11-27T19:35:11.854Z,118.30
2018-11-27T19:37:39.558Z,116.22
2018-11-27T19:40:09.721Z,108.77
2018-11-27T19:42:37.300Z,130.60
2018-11-27T19:45:06.454Z,118.93
2018-11-27T19:47:34.330Z,105.00
2018-11-27T19:50:01.896Z,114.13
2018-11-27T19:52:30.194Z,107.63
2018-11-27T19:54:57.678Z,105.67
2018-11-27T19:57:25.673Z,115.73
2018-11-27T19:59:53.455Z,118.70
2018-11-27T20:02:21.103Z,128.83
2018-11-27T20:04:48.674Z,126.37
2018-11-27T20:07:21.741Z,125.30
2018-11-27T20:09:49.190Z,126.13
2018-11-27T20:12:22.491Z,126.63
2018-11-27T20:14:50.161Z,120.57
2018-11-27T20:17:17.846Z,112.87
2018-11-27T20:22:19.435Z,114.73
2018-11-27T20:24:47.024Z,117.17
2018-11-27T20:27:20.104Z,130.17
2018-11-27T20:29:47.753Z,120.37
2018-11-27T20:32:20.664Z,120.93
2018-11-27T20:34:48.253Z,129.33
2018-11-27T20:37:15.715Z,129.43
2018-11-27T20:39:43.301Z,110.73
2018-11-27T20:42:10.995Z,126.67
2018-11-27T20:44:38.487Z,127.80
2018-11-27T20:47:07.561Z,135.33
2018-11-27T20:49:33.897Z,116.97
2018-11-27T20:52:06.806Z,117.70
2018-11-27T20:54:34.528Z,127.60
2018-11-27T20:57:02.164Z,122.40
2018-11-27T20:59:34.997Z,137.57
2018-11-27T21:02:02.472Z,131.50
2018-11-27T21:04:30.426Z,143.00
2018-11-27T21:06:58.193Z,146.93
2018-11-27T21:09:25.961Z,171.87
2018-11-27T21:11:53.504Z,164.40
2018-11-27T21:14:21.165Z,151.60
2018-11-27T21:16:48.638Z,143.30
2018-11-27T21:19:16.276Z,140.63
2018-11-27T21:21:43.851Z,140.17
2018-11-27T21:24:11.325Z,151.20
2018-11-27T21:26:38.910Z,159.33
2018-11-27T21:29:06.425Z,141.50
2018-11-27T21:31:34.111Z,143.20
2018-11-27T21:34:01.684Z,152.17
2018-11-27T21:36:29.451Z,151.43
2018-11-27T21:38:57.143Z,148.90
2018-11-27T21:41:24.637Z,146.40
2018-11-27T21:43:52.313Z,154.70
2018-11-27T21:46:20.082Z,146.10
2018-11-27T21:48:47.885Z,159.37
2018-11-27T21:51:15.521Z,147.83
2018-11-27T21:53:43.009Z,149.43
2018-11-27T21:56:10.522Z,152.10
2018-11-27T21:58:38.047Z,141.20
2018-11-27T22:01:05.976Z,137.93
2018-11-27T22:03:33.493Z,142.10
2018-11-27T22:06:00.961Z,152.17
2018-11-27T22:08:28.769Z,136.13
2018-11-27T22:11:01.743Z,153.93
2018-11-27T22:13:29.242Z,139.17
2018-11-27T22:15:56.899Z,146.87
2018-11-27T22:18:24.463Z,160.20
2018-11-27T22:20:57.304Z,179.13
2018-11-27T22:23:24.885Z,186.87
2018-11-27T22:25:52.509Z,161.50
2018-11-27T22:28:20.043Z,158.17
2018-11-27T22:30:47.547Z,161.20
2018-11-27T22:33:15.130Z,161.23
2018-11-27T22:35:42.777Z,135.27
2018-11-27T22:38:10.368Z,146.60
2018-11-27T22:40:38.279Z,145.20
2018-11-27T22:43:06.538Z,146.27
2018-11-27T22:45:36.079Z,135.63
2018-11-27T22:48:03.619Z,140.37
2018-11-27T22:50:31.402Z,141.17
2018-11-27T22:52:58.935Z,129.07
2018-11-27T22:55:26.378Z,134.60
2018-11-27T22:57:54.044Z,138.10
2018-11-27T23:00:32.764Z,144.63
2018-11-27T23:03:05.715Z,163.93
2018-11-27T23:05:33.389Z,137.70
2018-11-27T23:08:00.835Z,144.27
2018-11-27T23:10:29.833Z,142.57
2018-11-27T23:12:57.353Z,132.43
2018-11-27T23:15:24.841Z,126.67
2018-11-27T23:17:52.363Z,135.07
2018-11-27T23:20:20.260Z,128.13
2018-11-27T23:22:47.742Z,129.33
2018-11-27T23:25:15.963Z,140.33
2018-11-27T23:27:44.036Z,135.63
2018-11-27T23:30:13.249Z,130.83
2018-11-27T23:32:40.732Z,137.47
2018-11-27T23:35:08.229Z,147.27
2018-11-27T23:38:06.217Z,139.10
2018-11-27T23:40:36.212Z,132.13
2018-11-27T23:57:29.149Z,155.77
